Time;durP1;ratioP1;P1;durP2;ratioP2;P2;SDS_P1;SDS_P2;PMS_P1;PMS_P2;Temp;Humidity;BMP_temperature;BMP_pressure;BME280_temperature;BME280_humidity;BME280_pressure;Samples;Min_cycle;Max_cycle;Signal;HPM_P1;HPM_P2
2022/01/06 00:00:07;;;;;;;0.80;0.80;;;3.50;99.90;;;;;;5015106;28;20050;-80
2022/01/06 00:02:33;;;;;;;0.38;0.38;;;3.50;99.90;;;;;;5014708;28;20030;-79
2022/01/06 00:04:59;;;;;;;0.00;0.00;;;3.40;99.90;;;;;;5014823;28;20026;-76
2022/01/06 00:07:25;;;;;;;0.05;0.05;;;3.40;99.90;;;;;;5014170;28;20052;-78
2022/01/06 00:09:51;;;;;;;0.17;0.17;;;3.40;99.90;;;;;;5015093;28;20541;-78
2022/01/06 00:12:19;;;;;;;0.68;0.68;;;3.30;99.90;;;;;;5015890;28;20064;-77
2022/01/06 00:15:05;;;;;;;1.65;0.55;;;3.30;99.90;;;;;;5014910;28;20020;-76
2022/01/06 00:23:23;;;;;;;0.10;0.10;;;3.20;99.90;;;;;;5029042;28;20042;-77
2022/01/06 00:25:51;;;;;;;0.20;0.20;;;3.10;99.90;;;;;;5030974;28;20022;-78
2022/01/06 00:28:17;;;;;;;1.38;0.85;;;3.10;99.90;;;;;;5015112;28;20030;-77
2022/01/06 00:30:43;;;;;;;0.60;0.35;;;3.10;99.90;;;;;;5013244;28;20030;-76
2022/01/06 00:33:09;;;;;;;0.03;0.03;;;3.10;99.90;;;;;;5011729;28;20563;-76
2022/01/06 00:35:35;;;;;;;1.98;1.08;;;3.00;99.90;;;;;;5014489;28;20034;-77
2022/01/06 00:38:01;;;;;;;0.00;0.00;;;2.90;99.90;;;;;;5015036;28;20045;-78
2022/01/06 00:40:26;;;;;;;0.95;0.90;;;2.90;99.90;;;;;;5024478;28;20062;-77
2022/01/06 00:42:52;;;;;;;0.00;0.00;;;2.90;99.90;;;;;;5015032;28;20076;-78
2022/01/06 00:45:18;;;;;;;0.22;0.22;;;2.90;99.90;;;;;;4993704;28;20487;-76
2022/01/06 00:47:46;;;;;;;0.55;0.45;;;2.80;99.90;;;;;;4996427;28;20069;-77
2022/01/06 00:50:12;;;;;;;1.40;1.00;;;2.70;99.90;;;;;;5011088;28;20488;-78
2022/01/06 00:52:38;;;;;;;0.00;0.00;;;2.70;99.90;;;;;;5012470;28;20034;-77
2022/01/06 00:55:05;;;;;;;0.38;0.38;;;2.60;99.90;;;;;;5012786;28;20072;-78
2022/01/06 00:57:31;;;;;;;0.60;0.60;;;2.60;99.90;;;;;;5012841;28;20030;-76
2022/01/06 00:59:56;;;;;;;0.93;0.88;;;2.50;99.90;;;;;;5011421;28;20034;-78
2022/01/06 01:02:22;;;;;;;0.10;0.10;;;2.50;99.90;;;;;;5012684;28;20136;-78
2022/01/06 01:04:48;;;;;;;0.00;0.00;;;2.50;99.90;;;;;;5012565;28;20015;-78
2022/01/06 01:07:14;;;;;;;0.00;0.00;;;2.50;99.90;;;;;;5012520;28;20022;-77
2022/01/06 01:09:40;;;;;;;0.08;0.08;;;2.40;99.90;;;;;;5012281;28;20018;-76
2022/01/06 01:12:06;;;;;;;0.00;0.00;;;2.40;99.90;;;;;;5010961;28;20041;-76
2022/01/06 01:14:44;;;;;;;0.05;0.05;;;2.40;99.90;;;;;;5009326;28;20069;-78
2022/01/06 01:17:14;;;;;;;0.03;0.03;;;2.30;99.90;;;;;;4996934;28;20087;-78
2022/01/06 01:19:40;;;;;;;0.08;0.08;;;2.30;99.90;;;;;;4996928;28;20022;-77
2022/01/06 01:22:08;;;;;;;8.20;2.40;;;2.30;99.90;;;;;;5000668;28;20036;-76
2022/01/06 01:24:34;;;;;;;0.65;0.65;;;2.30;99.90;;;;;;5016483;28;20515;-76
2022/01/06 01:26:59;;;;;;;0.15;0.15;;;2.30;99.90;;;;;;5016480;28;20030;-78
2022/01/06 01:29:27;;;;;;;0.60;0.60;;;2.30;99.90;;;;;;5016337;28;20088;-77
2022/01/06 01:31:53;;;;;;;0.00;0.00;;;2.20;99.90;;;;;;5016587;28;20026;-78
2022/01/06 01:34:24;;;;;;;0.00;0.00;;;2.20;99.90;;;;;;5014886;28;20030;-76
2022/01/06 01:36:51;;;;;;;0.00;0.00;;;2.20;99.90;;;;;;5014901;28;20496;-76
2022/01/06 01:39:16;;;;;;;1.05;0.75;;;2.20;99.90;;;;;;5016114;28;20025;-76
2022/01/06 01:41:42;;;;;;;0.13;0.13;;;2.10;99.90;;;;;;5016241;28;20065;-77
2022/01/06 01:44:13;;;;;;;4.32;1.08;;;2.10;99.90;;;;;;5003661;28;20043;-76
2022/01/06 01:46:44;;;;;;;0.10;0.10;;;2.00;99.90;;;;;;4996670;28;20563;-76
2022/01/06 01:51:37;;;;;;;0.25;0.25;;;2.00;99.90;;;;;;5015440;28;20033;-76
2022/01/06 01:54:02;;;;;;;0.20;0.20;;;2.00;99.90;;;;;;5015655;28;20401;-77
2022/01/06 01:56:28;;;;;;;0.50;0.50;;;2.00;99.90;;;;;;5016015;28;20480;-77
2022/01/06 01:58:54;;;;;;;2.83;1.10;;;2.00;99.90;;;;;;5015997;28;20424;-78
2022/01/06 02:01:20;;;;;;;0.73;0.73;;;1.90;99.90;;;;;;5013523;28;20459;-76
2022/01/06 02:03:45;;;;;;;0.08;0.08;;;1.90;99.90;;;;;;5015604;28;20077;-76
2022/01/06 02:06:11;;;;;;;0.10;0.10;;;1.90;99.90;;;;;;5015585;28;20026;-76
2022/01/06 02:08:36;;;;;;;0.65;0.60;;;1.90;99.90;;;;;;5015748;28;20477;-78
2022/01/06 02:11:02;;;;;;;1.42;0.55;;;1.90;99.90;;;;;;5015409;28;20076;-78
2022/01/06 02:13:29;;;;;;;0.65;0.65;;;1.90;99.90;;;;;;5015812;28;20037;-76
2022/01/06 02:16:00;;;;;;;0.57;0.43;;;1.80;99.90;;;;;;4997217;28;20050;-76
2022/01/06 02:18:28;;;;;;;0.47;0.22;;;1.80;99.90;;;;;;4995847;28;20097;-76
2022/01/06 02:20:54;;;;;;;0.28;0.28;;;1.80;99.90;;;;;;4994852;28;20105;-77
2022/01/06 02:23:23;;;;;;;0.35;0.35;;;1.80;99.90;;;;;;5009736;28;20447;-78
2022/01/06 02:25:49;;;;;;;0.00;0.00;;;1.80;99.90;;;;;;5015295;28;20022;-77
2022/01/06 02:28:22;;;;;;;5.25;1.15;;;1.70;99.90;;;;;;5015572;28;20030;-76
2022/01/06 02:30:50;;;;;;;0.32;0.32;;;1.60;99.90;;;;;;5015469;28;20037;-76
2022/01/06 02:33:17;;;;;;;0.00;0.00;;;1.60;99.90;;;;;;5013599;28;20456;-77
2022/01/06 02:35:45;;;;;;;0.28;0.28;;;1.60;99.90;;;;;;5014140;28;20053;-77
2022/01/06 02:38:11;;;;;;;0.00;0.00;;;1.60;99.90;;;;;;5014884;28;20096;-77
2022/01/06 02:40:37;;;;;;;7.28;1.75;;;1.50;99.90;;;;;;5015037;28;20409;-76
2022/01/06 02:43:06;;;;;;;0.00;0.00;;;1.50;99.90;;;;;;5011478;28;20023;-76
2022/01/06 02:45:31;;;;;;;0.00;0.00;;;1.40;99.90;;;;;;4995458;28;20018;-77
2022/01/06 02:47:58;;;;;;;0.52;0.52;;;1.40;99.90;;;;;;5000150;28;20426;-77
2022/01/06 02:50:25;;;;;;;0.00;0.00;;;1.30;99.90;;;;;;5014047;28;20084;-76
2022/01/06 02:52:51;;;;;;;0.05;0.05;;;1.30;99.90;;;;;;5014592;28;20046;-77
2022/01/06 02:55:17;;;;;;;0.32;0.32;;;1.20;99.90;;;;;;5014868;28;20084;-76
2022/01/06 02:57:44;;;;;;;0.00;0.00;;;1.20;99.90;;;;;;5014953;28;20076;-76
2022/01/06 03:00:12;;;;;;;1.65;0.63;;;1.20;99.90;;;;;;5014715;28;20109;-76
2022/01/06 03:02:41;;;;;;;0.00;0.00;;;1.20;99.90;;;;;;5014657;28;20036;-78
2022/01/06 03:05:07;;;;;;;0.00;0.00;;;1.10;99.90;;;;;;5014406;28;20059;-78
2022/01/06 03:07:33;;;;;;;0.85;0.70;;;1.10;99.90;;;;;;5014377;28;20022;-76
2022/01/06 03:09:59;;;;;;;0.20;0.20;;;1.10;99.90;;;;;;5014296;28;20026;-76
2022/01/06 03:12:43;;;;;;;0.00;0.00;;;1.10;99.90;;;;;;5013683;28;20396;-80
2022/01/06 03:15:11;;;;;;;0.10;0.10;;;1.10;99.90;;;;;;5012866;28;20026;-80
2022/01/06 03:17:39;;;;;;;0.30;0.22;;;1.10;99.90;;;;;;5014211;28;20033;-80
2022/01/06 03:20:06;;;;;;;11.65;0.55;;;1.20;99.90;;;;;;5014226;28;20081;-79
2022/01/06 03:22:32;;;;;;;0.00;0.00;;;1.20;99.90;;;;;;5013830;28;20435;-80
2022/01/06 03:24:58;;;;;;;0.03;0.03;;;1.20;99.90;;;;;;5014338;28;20105;-80
2022/01/06 03:27:23;;;;;;;0.00;0.00;;;1.20;99.90;;;;;;5014264;28;20500;-80
2022/01/06 03:29:50;;;;;;;1.13;0.68;;;1.30;99.90;;;;;;5012837;28;20053;-80
2022/01/06 03:32:17;;;;;;;0.38;0.38;;;1.30;99.90;;;;;;5012436;28;20400;-79
2022/01/06 03:34:44;;;;;;;1.55;0.80;;;1.30;99.90;;;;;;5012657;28;20033;-79
2022/01/06 03:37:10;;;;;;;0.10;0.10;;;1.30;99.90;;;;;;5013212;28;20484;-80
2022/01/06 03:39:36;;;;;;;1.15;1.13;;;1.20;99.90;;;;;;5014116;28;20040;-80
2022/01/06 03:42:02;;;;;;;0.00;0.00;;;1.20;99.90;;;;;;5013960;28;20022;-80
2022/01/06 03:44:27;;;;;;;0.00;0.00;;;1.20;99.90;;;;;;4998800;28;20097;-78
2022/01/06 03:46:53;;;;;;;0.00;0.00;;;1.30;99.90;;;;;;4994381;28;20463;-78
2022/01/06 03:49:20;;;;;;;0.00;0.00;;;1.30;99.90;;;;;;5009606;28;20026;-80
2022/01/06 03:51:46;;;;;;;0.00;0.00;;;1.30;99.90;;;;;;5013736;28;20026;-80
2022/01/06 03:54:11;;;;;;;0.38;0.38;;;1.30;99.90;;;;;;5013551;28;20393;-80
2022/01/06 03:56:37;;;;;;;0.10;0.10;;;1.30;99.90;;;;;;5013617;28;20026;-80
2022/01/06 03:59:04;;;;;;;7.43;1.65;;;1.30;99.90;;;;;;5013624;28;20030;-79
2022/01/06 04:01:29;;;;;;;0.00;0.00;;;1.30;99.90;;;;;;5013737;28;20033;-80
2022/01/06 04:03:55;;;;;;;0.10;0.10;;;1.30;99.90;;;;;;5013308;28;20030;-80
2022/01/06 04:06:20;;;;;;;0.00;0.00;;;1.30;99.90;;;;;;5013287;28;20030;-80
2022/01/06 04:08:46;;;;;;;0.00;0.00;;;1.40;99.90;;;;;;5011257;28;20440;-80
2022/01/06 04:11:12;;;;;;;0.00;0.00;;;1.30;99.90;;;;;;5013132;28;20026;-79
2022/01/06 04:13:37;;;;;;;0.00;0.00;;;1.30;99.90;;;;;;5012118;28;20175;-80
2022/01/06 04:16:07;;;;;;;1.30;0.25;;;1.30;99.90;;;;;;4993980;28;20026;-80
2022/01/06 04:18:33;;;;;;;0.43;0.43;;;1.30;99.90;;;;;;4993631;28;20109;-80
2022/01/06 04:20:59;;;;;;;0.00;0.00;;;1.20;99.90;;;;;;4993396;28;20105;-80
2022/01/06 04:23:24;;;;;;;0.00;0.00;;;1.20;99.90;;;;;;5008262;28;20071;-79
2022/01/06 04:25:50;;;;;;;0.00;0.00;;;1.20;99.90;;;;;;5013060;28;20033;-80
2022/01/06 04:28:16;;;;;;;0.00;0.00;;;1.20;99.90;;;;;;5013471;28;20030;-79
2022/01/06 04:30:41;;;;;;;0.00;0.00;;;1.10;99.90;;;;;;5013256;28;20072;-79
2022/01/06 04:33:07;;;;;;;0.10;0.10;;;1.10;99.90;;;;;;5012870;28;20029;-80
2022/01/06 04:35:33;;;;;;;0.25;0.25;;;1.10;99.90;;;;;;5011441;28;20489;-80
2022/01/06 04:37:58;;;;;;;0.47;0.47;;;1.00;99.90;;;;;;5011860;28;20112;-80
2022/01/06 04:40:24;;;;;;;0.00;0.00;;;1.00;99.90;;;;;;5013055;28;20018;-80
2022/01/06 04:42:50;;;;;;;0.47;0.47;;;1.00;99.90;;;;;;5010827;28;20404;-79
2022/01/06 04:45:15;;;;;;;0.00;0.00;;;0.90;99.90;;;;;;4993247;28;20057;-80
2022/01/06 04:47:41;;;;;;;0.00;0.00;;;0.90;99.90;;;;;;4994883;28;20029;-80
2022/01/06 04:50:07;;;;;;;0.00;0.00;;;0.90;99.90;;;;;;5012046;28;20124;-79
2022/01/06 04:52:33;;;;;;;0.00;0.00;;;0.90;99.90;;;;;;5012478;28;20022;-76
2022/01/06 04:54:59;;;;;;;0.00;0.00;;;0.90;99.90;;;;;;5012840;28;20030;-77
2022/01/06 04:57:25;;;;;;;0.00;0.00;;;0.90;99.90;;;;;;5012747;28;20033;-78
2022/01/06 04:59:50;;;;;;;0.10;0.10;;;0.90;99.90;;;;;;5012797;28;20034;-76
2022/01/06 05:02:16;;;;;;;0.00;0.00;;;0.90;99.90;;;;;;5012612;28;20030;-77
2022/01/06 05:04:42;;;;;;;2.83;0.75;;;0.90;99.90;;;;;;5012530;28;20029;-76
2022/01/06 05:07:07;;;;;;;0.03;0.03;;;0.90;99.90;;;;;;5011940;28;20049;-78
2022/01/06 05:09:33;;;;;;;0.00;0.00;;;0.90;99.90;;;;;;5012405;28;20508;-76
2022/01/06 05:11:58;;;;;;;2.00;0.22;;;1.00;99.90;;;;;;5012546;28;20101;-77
2022/01/06 05:14:24;;;;;;;0.10;0.10;;;1.00;99.90;;;;;;5006629;28;20137;-76
2022/01/06 05:16:50;;;;;;;0.00;0.00;;;1.10;99.90;;;;;;4992817;28;20457;-76
2022/01/06 05:19:16;;;;;;;0.20;0.20;;;1.10;99.90;;;;;;4992791;28;20037;-78
2022/01/06 05:21:42;;;;;;;4.75;1.27;;;1.20;99.90;;;;;;4993652;28;20394;-77
2022/01/06 05:24:16;;;;;;;0.00;0.00;;;1.20;99.90;;;;;;5012542;28;20029;-78
2022/01/06 05:26:42;;;;;;;0.00;0.00;;;1.10;99.90;;;;;;5012376;28;20022;-78
2022/01/06 05:29:09;;;;;;;0.30;0.30;;;1.20;99.90;;;;;;5012179;28;20046;-76
2022/01/06 05:31:35;;;;;;;0.05;0.05;;;1.20;99.90;;;;;;5011688;28;20473;-76
2022/01/06 05:34:00;;;;;;;0.00;0.00;;;1.30;99.90;;;;;;5011074;28;20076;-78
2022/01/06 05:36:26;;;;;;;0.00;0.00;;;1.40;99.90;;;;;;5010731;28;20041;-77
2022/01/06 05:38:52;;;;;;;7.18;0.68;;;1.40;99.90;;;;;;5012461;28;20385;-77
2022/01/06 05:41:17;;;;;;;0.00;0.00;;;1.40;99.90;;;;;;5012158;28;20547;-76
2022/01/06 05:43:43;;;;;;;0.00;0.00;;;1.40;99.90;;;;;;5003536;28;20022;-76
2022/01/06 05:46:09;;;;;;;0.10;0.10;;;1.40;99.90;;;;;;4992541;28;20496;-77
2022/01/06 05:48:34;;;;;;;0.00;0.00;;;1.40;99.90;;;;;;5002358;28;20026;-78
2022/01/06 05:51:00;;;;;;;0.00;0.00;;;1.40;99.90;;;;;;5011616;28;20500;-78
2022/01/06 05:53:26;;;;;;;0.52;0.52;;;1.40;99.90;;;;;;5010803;28;20029;-78
2022/01/06 05:55:51;;;;;;;0.45;0.45;;;1.30;99.90;;;;;;5012325;28;20400;-78
2022/01/06 05:58:17;;;;;;;1.00;0.57;;;1.20;99.90;;;;;;5009705;28;20026;-77
2022/01/06 06:00:43;;;;;;;0.00;0.00;;;1.10;99.90;;;;;;5015383;28;20037;-78
2022/01/06 06:03:09;;;;;;;0.13;0.13;;;1.00;99.90;;;;;;5015706;28;20511;-78
2022/01/06 06:05:35;;;;;;;0.00;0.00;;;1.00;99.90;;;;;;5015447;28;20100;-77
2022/01/06 06:08:00;;;;;;;0.00;0.00;;;1.00;99.90;;;;;;5015579;28;20457;-76
2022/01/06 06:10:26;;;;;;;0.00;0.00;;;0.90;99.90;;;;;;5015497;28;20037;-77
2022/01/06 06:12:53;;;;;;;0.10;0.10;;;0.90;99.90;;;;;;5015695;28;20037;-78
2022/01/06 06:15:22;;;;;;;0.00;0.00;;;0.90;99.90;;;;;;5010661;28;20053;-77
2022/01/06 06:17:48;;;;;;;0.00;0.00;;;0.80;99.90;;;;;;5007084;28;20096;-77
2022/01/06 06:20:14;;;;;;;0.10;0.10;;;0.80;99.90;;;;;;5015510;28;20030;-77
2022/01/06 06:22:40;;;;;;;0.00;0.00;;;0.80;99.90;;;;;;5014812;28;20036;-78
2022/01/06 06:25:06;;;;;;;0.00;0.00;;;0.70;99.90;;;;;;5015244;28;20037;-79
2022/01/06 06:27:31;;;;;;;0.10;0.10;;;0.70;99.90;;;;;;5014001;28;20025;-80
2022/01/06 06:29:57;;;;;;;0.25;0.25;;;0.80;99.90;;;;;;5015127;28;20057;-80
2022/01/06 06:32:25;;;;;;;0.00;0.00;;;0.90;99.90;;;;;;5015146;28;20489;-80
2022/01/06 06:34:52;;;;;;;0.30;0.30;;;1.00;99.90;;;;;;5013812;28;20029;-79
2022/01/06 06:37:18;;;;;;;0.10;0.10;;;0.90;99.90;;;;;;4994831;28;20370;-78
2022/01/06 06:39:44;;;;;;;0.40;0.40;;;0.90;99.90;;;;;;4995601;28;20066;-80
2022/01/06 06:42:10;;;;;;;0.00;0.00;;;0.90;99.90;;;;;;5005284;28;20030;-77
2022/01/06 06:44:35;;;;;;;0.32;0.32;;;0.90;99.90;;;;;;4997720;28;20053;-78
2022/01/06 06:47:01;;;;;;;0.00;0.00;;;0.90;99.90;;;;;;5006350;28;20030;-76
2022/01/06 06:49:28;;;;;;;0.00;0.00;;;1.00;99.90;;;;;;5013824;28;20057;-76
2022/01/06 06:51:54;;;;;;;1.45;0.90;;;0.90;99.90;;;;;;5014054;28;20440;-77
2022/01/06 06:54:20;;;;;;;0.00;0.00;;;0.90;99.90;;;;;;5014526;28;20034;-78
2022/01/06 06:56:46;;;;;;;1.17;0.73;;;0.80;99.90;;;;;;5013370;28;20497;-76
2022/01/06 06:59:11;;;;;;;0.00;0.00;;;0.70;99.90;;;;;;5028969;28;20037;-77
2022/01/06 07:01:37;;;;;;;0.10;0.10;;;0.60;99.90;;;;;;5030800;28;20038;-76
2022/01/06 07:04:03;;;;;;;0.35;0.22;;;0.60;99.90;;;;;;5007959;28;20108;-77
2022/01/06 07:06:28;;;;;;;0.22;0.22;;;0.50;99.90;;;;;;5013054;28;20382;-77
2022/01/06 07:08:54;;;;;;;0.00;0.00;;;0.50;99.90;;;;;;5020073;28;20026;-76
2022/01/06 07:11:22;;;;;;;0.30;0.30;;;0.50;99.90;;;;;;5011669;28;20034;-77
2022/01/06 07:13:48;;;;;;;0.00;0.00;;;0.50;99.90;;;;;;5014003;28;20045;-76
2022/01/06 07:16:13;;;;;;;0.00;0.00;;;0.50;99.90;;;;;;5013425;28;20026;-77
2022/01/06 07:18:39;;;;;;;0.15;0.15;;;0.60;99.90;;;;;;5023186;28;20503;-77
2022/01/06 07:21:05;;;;;;;0.00;0.00;;;0.70;99.90;;;;;;5027965;28;20033;-77
2022/01/06 07:23:30;;;;;;;0.00;0.00;;;0.80;99.90;;;;;;5013008;28;20030;-77
2022/01/06 07:25:56;;;;;;;0.00;0.00;;;0.80;99.90;;;;;;5010667;28;20105;-77
2022/01/06 07:28:22;;;;;;;0.32;0.30;;;0.90;99.90;;;;;;5015627;28;20428;-77
2022/01/06 07:30:47;;;;;;;4.68;0.65;;;1.00;99.90;;;;;;5010998;28;20038;-77
2022/01/06 07:33:13;;;;;;;0.00;0.00;;;0.90;99.90;;;;;;5012431;28;20041;-77
2022/01/06 07:35:38;;;;;;;0.65;0.65;;;0.90;99.90;;;;;;5012630;28;20041;-77
2022/01/06 07:38:04;;;;;;;2.15;1.42;;;0.80;99.90;;;;;;5010914;28;20504;-76
2022/01/06 07:40:30;;;;;;;0.20;0.20;;;0.70;99.90;;;;;;5011992;28;20482;-76
2022/01/06 07:42:56;;;;;;;0.20;0.20;;;0.60;99.90;;;;;;5012624;28;20030;-77
2022/01/06 07:45:21;;;;;;;0.47;0.43;;;0.60;99.90;;;;;;5009904;28;20426;-80
2022/01/06 07:47:59;;;;;;;0.10;0.10;;;0.60;99.90;;;;;;5007772;28;20034;-81
2022/01/06 07:50:31;;;;;;;0.15;0.15;;;0.70;99.90;;;;;;5011747;28;20113;-80
2022/01/06 07:52:57;;;;;;;2.72;1.45;;;0.70;99.90;;;;;;5014938;28;20045;-79
2022/01/06 07:55:23;;;;;;;1.27;1.23;;;0.70;99.90;;;;;;5010634;28;20057;-81
2022/01/06 07:57:50;;;;;;;0.32;0.32;;;0.70;99.90;;;;;;5006860;28;20040;-81
2022/01/06 08:00:16;;;;;;;0.28;0.28;;;0.70;99.90;;;;;;4994454;28;20060;-80
2022/01/06 08:02:43;;;;;;;0.08;0.08;;;0.70;99.90;;;;;;5001813;28;20026;-82
2022/01/06 08:05:11;;;;;;;0.32;0.32;;;0.70;99.90;;;;;;5006506;28;20442;-79
2022/01/06 08:07:37;;;;;;;0.15;0.15;;;0.70;99.90;;;;;;5013247;28;20058;-79
2022/01/06 08:10:04;;;;;;;0.00;0.00;;;0.70;99.90;;;;;;5010081;28;20034;-80
2022/01/06 08:12:29;;;;;;;0.17;0.17;;;0.80;99.90;;;;;;5013068;28;20405;-80
2022/01/06 08:14:55;;;;;;;0.00;0.00;;;0.80;99.90;;;;;;5011751;28;20084;-79
2022/01/06 08:17:21;;;;;;;0.10;0.10;;;1.00;99.90;;;;;;5011676;28;20457;-80
2022/01/06 08:19:47;;;;;;;0.22;0.22;;;1.10;99.90;;;;;;5013165;28;20121;-77
2022/01/06 08:22:13;;;;;;;0.08;0.08;;;1.10;99.90;;;;;;5019714;28;20018;-82
2022/01/06 08:24:40;;;;;;;1.08;0.65;;;1.20;99.90;;;;;;5022546;28;20049;-83
2022/01/06 08:27:08;;;;;;;0.10;0.10;;;1.30;99.90;;;;;;5031940;28;20026;-80
2022/01/06 08:29:38;;;;;;;0.13;0.13;;;1.40;99.90;;;;;;5032189;28;20072;-83
2022/01/06 08:32:05;;;;;;;2.28;0.90;;;1.40;99.90;;;;;;5012857;28;20497;-79
2022/01/06 08:34:31;;;;;;;3.92;1.00;;;1.50;99.90;;;;;;5016370;28;20085;-80
2022/01/06 08:36:57;;;;;;;0.20;0.20;;;1.60;99.90;;;;;;5012152;28;20109;-79
2022/01/06 08:39:23;;;;;;;3.83;1.55;;;1.70;99.90;;;;;;5011111;28;20064;-84
2022/01/06 08:41:51;;;;;;;0.10;0.10;;;1.80;99.90;;;;;;5011906;28;20026;-81
2022/01/06 08:44:17;;;;;;;0.05;0.05;;;1.80;99.90;;;;;;5007054;28;20021;-86
2022/01/06 08:46:42;;;;;;;0.43;0.43;;;1.80;99.90;;;;;;5031721;28;20032;-78
2022/01/06 08:49:11;;;;;;;0.28;0.28;;;1.90;99.90;;;;;;5016319;28;20025;-83
2022/01/06 08:51:38;;;;;;;0.20;0.20;;;1.90;99.90;;;;;;5012151;28;20033;-80
2022/01/06 08:54:05;;;;;;;9.50;1.17;;;2.00;99.90;;;;;;5017137;28;20484;-82
2022/01/06 08:56:30;;;;;;;1.08;0.98;;;2.10;99.90;;;;;;5013727;28;20026;-80
2022/01/06 08:58:56;;;;;;;1.00;0.90;;;2.10;99.90;;;;;;5006867;28;20508;-81
2022/01/06 09:01:21;;;;;;;0.38;0.38;;;2.20;99.90;;;;;;5015185;28;20033;-80
2022/01/06 09:03:47;;;;;;;9.52;1.38;;;2.30;99.90;;;;;;5019993;28;20087;-80
2022/01/06 09:06:13;;;;;;;0.60;0.60;;;2.30;99.90;;;;;;5019438;28;20026;-81
2022/01/06 09:08:39;;;;;;;0.52;0.52;;;2.30;99.90;;;;;;5011780;28;20041;-80
2022/01/06 09:11:05;;;;;;;0.57;0.57;;;2.40;99.90;;;;;;5011413;28;20026;-80
2022/01/06 09:13:31;;;;;;;0.40;0.40;;;2.50;99.90;;;;;;5011067;28;20400;-82
2022/01/06 09:15:56;;;;;;;0.45;0.35;;;2.60;99.90;;;;;;5013894;28;20040;-80
2022/01/06 09:18:22;;;;;;;0.22;0.22;;;2.80;99.90;;;;;;5011014;28;20037;-82
2022/01/06 09:20:48;;;;;;;1.17;1.00;;;2.90;99.90;;;;;;5018375;28;20043;-82
2022/01/06 09:23:14;;;;;;;0.50;0.50;;;3.00;99.90;;;;;;5017047;28;20065;-83
2022/01/06 09:25:40;;;;;;;5.90;0.47;;;3.10;99.90;;;;;;5010598;28;20022;-83
2022/01/06 09:28:05;;;;;;;1.38;1.27;;;3.20;99.90;;;;;;5014195;28;20026;-81
2022/01/06 09:30:31;;;;;;;4.85;1.20;;;3.30;99.90;;;;;;5030412;28;20523;-82
2022/01/06 09:32:57;;;;;;;0.30;0.30;;;3.40;99.90;;;;;;5030232;28;20038;-81
2022/01/06 09:35:22;;;;;;;0.03;0.03;;;3.50;99.90;;;;;;5033719;28;20052;-82
2022/01/06 09:37:48;;;;;;;0.00;0.00;;;3.60;99.90;;;;;;5033893;28;20492;-82
2022/01/06 09:40:14;;;;;;;0.30;0.30;;;3.70;99.90;;;;;;5039742;28;20081;-82
2022/01/06 09:42:42;;;;;;;0.88;0.73;;;3.80;99.90;;;;;;5004051;28;20034;-81
2022/01/06 09:45:08;;;;;;;0.00;0.00;;;3.80;99.90;;;;;;5000520;28;20507;-81
2022/01/06 09:47:36;;;;;;;1.08;0.40;;;3.90;99.90;;;;;;5013166;28;20072;-81
2022/01/06 09:50:02;;;;;;;2.33;1.48;;;4.10;99.90;;;;;;5003580;28;20029;-82
2022/01/06 09:52:28;;;;;;;0.10;0.10;;;4.20;99.90;;;;;;5013991;28;20405;-81
2022/01/06 09:54:53;;;;;;;0.25;0.25;;;4.30;99.90;;;;;;5014543;28;20026;-82
2022/01/06 09:57:19;;;;;;;0.08;0.08;;;4.50;99.90;;;;;;5014833;28;20122;-82
2022/01/06 09:59:45;;;;;;;0.00;0.00;;;4.60;99.90;;;;;;5023463;28;20026;-82
2022/01/06 10:02:16;;;;;;;0.03;0.03;;;4.80;99.90;;;;;;5023631;28;20045;-82
2022/01/06 10:04:44;;;;;;;1.55;0.80;;;4.90;99.90;;;;;;5021563;28;20484;-82
2022/01/06 10:07:10;;;;;;;0.05;0.05;;;5.10;99.90;;;;;;5033595;28;20025;-81
2022/01/06 10:09:39;;;;;;;0.45;0.45;;;5.20;99.90;;;;;;5032447;28;20032;-81
2022/01/06 10:12:10;;;;;;;0.00;0.00;;;5.40;99.90;;;;;;5015943;28;20401;-81
2022/01/06 10:14:46;;;;;;;0.00;0.00;;;5.50;99.90;;;;;;5010571;28;20152;-82
2022/01/06 10:17:15;;;;;;;0.30;0.30;;;5.60;99.90;;;;;;5011401;28;20077;-82
2022/01/06 10:19:43;;;;;;;0.00;0.00;;;5.70;99.90;;;;;;5023690;28;20041;-81
2022/01/06 10:22:19;;;;;;;0.80;0.75;;;5.80;99.90;;;;;;5011938;28;20018;-79
2022/01/06 10:24:47;;;;;;;0.05;0.05;;;6.00;99.90;;;;;;5013301;28;20017;-80
2022/01/06 10:27:16;;;;;;;0.88;0.82;;;6.00;99.90;;;;;;5016661;28;20045;-80
2022/01/06 10:29:47;;;;;;;0.35;0.35;;;6.00;99.90;;;;;;5015622;28;20042;-78
2022/01/06 10:32:18;;;;;;;0.20;0.20;;;6.10;99.90;;;;;;5013765;28;20026;-80
2022/01/06 10:34:48;;;;;;;0.10;0.10;;;6.30;99.90;;;;;;5015327;28;20034;-80
2022/01/06 10:37:18;;;;;;;0.00;0.00;;;5.90;99.90;;;;;;5015648;28;20032;-78
2022/01/06 10:39:45;;;;;;;1.15;0.73;;;5.80;99.90;;;;;;5012386;28;20025;-74
2022/01/06 10:42:11;;;;;;;0.20;0.20;;;5.80;99.90;;;;;;5012799;28;20461;-76
2022/01/06 10:44:50;;;;;;;2.38;2.03;;;5.80;99.90;;;;;;4995861;28;20022;-75
2022/01/06 10:47:32;;;;;;;0.38;0.38;;;5.90;99.90;;;;;;4993006;28;20093;-76
2022/01/06 10:50:18;;;;;;;0.03;0.03;;;5.90;99.90;;;;;;5012885;28;20053;-76
2022/01/06 10:52:47;;;;;;;1.48;1.17;;;6.00;99.90;;;;;;5013338;28;20018;-76
2022/01/06 10:55:15;;;;;;;2.30;1.15;;;6.10;99.90;;;;;;5013131;28;20438;-75
2022/01/06 10:58:11;;;;;;;0.73;0.70;;;6.20;99.90;;;;;;5012192;28;20034;-77
2022/01/06 11:00:57;;;;;;;3.20;1.17;;;6.30;99.90;;;;;;5023957;28;20037;-78
2022/01/06 11:03:26;;;;;;;0.30;0.30;;;6.30;99.90;;;;;;5029527;28;20551;-78
2022/01/06 11:05:57;;;;;;;0.30;0.20;;;6.40;99.90;;;;;;5020446;28;20053;-77
2022/01/06 11:08:26;;;;;;;0.10;0.10;;;6.50;99.90;;;;;;5013006;28;20076;-76
2022/01/06 11:13:47;;;;;;;0.13;0.13;;;6.80;99.90;;;;;;5012258;28;20034;-79
2022/01/06 11:16:15;;;;;;;2.33;0.98;;;7.00;99.90;;;;;;4993767;28;20026;-77
2022/01/06 11:18:51;;;;;;;0.28;0.17;;;7.00;99.90;;;;;;4998543;28;20029;-77
2022/01/06 11:21:33;;;;;;;0.00;0.00;;;7.20;99.90;;;;;;4992656;28;20061;-78
2022/01/06 11:24:04;;;;;;;0.00;0.00;;;7.30;99.90;;;;;;5011734;28;20018;-81
2022/01/06 11:26:30;;;;;;;0.55;0.55;;;7.30;99.90;;;;;;5015835;28;20054;-79
2022/01/06 11:29:00;;;;;;;0.10;0.10;;;7.20;99.90;;;;;;5017666;28;20041;-79
2022/01/06 11:31:28;;;;;;;1.63;0.82;;;7.20;99.90;;;;;;5032787;28;20084;-79
2022/01/06 11:33:58;;;;;;;0.00;0.00;;;7.20;99.90;;;;;;5031543;28;20159;-79
2022/01/06 11:36:32;;;;;;;0.08;0.08;;;7.40;99.90;;;;;;5024855;28;20030;-79
2022/01/06 11:38:59;;;;;;;0.00;0.00;;;7.70;99.90;;;;;;5017324;28;20029;-79
2022/01/06 11:41:32;;;;;;;0.28;0.28;;;7.60;99.90;;;;;;5011134;28;20062;-80
2022/01/06 11:43:58;;;;;;;0.75;0.43;;;7.80;99.90;;;;;;5002384;28;20030;-80
2022/01/06 11:46:25;;;;;;;0.10;0.10;;;7.80;99.90;;;;;;5007635;28;20559;-80
2022/01/06 11:48:59;;;;;;;0.73;0.73;;;7.80;99.90;;;;;;4998487;28;20022;-78
2022/01/06 11:51:27;;;;;;;0.28;0.28;;;7.80;99.90;;;;;;5014061;28;20037;-81
2022/01/06 11:53:53;;;;;;;0.25;0.25;;;7.90;99.90;;;;;;5039400;28;20016;-78
2022/01/06 11:56:21;;;;;;;0.20;0.20;;;7.80;99.90;;;;;;5038707;28;20077;-80
2022/01/06 11:59:04;;;;;;;0.20;0.20;;;8.00;99.90;;;;;;5039089;28;20089;-80
2022/01/06 12:01:47;;;;;;;0.05;0.05;;;8.00;99.90;;;;;;5039603;28;20081;-79
2022/01/06 12:04:18;;;;;;;0.00;0.00;;;7.90;99.90;;;;;;5032407;28;20029;-81
2022/01/06 12:06:44;;;;;;;0.00;0.00;;;7.90;99.90;;;;;;5031482;28;20430;-79
2022/01/06 12:09:21;;;;;;;0.00;0.00;;;7.90;99.90;;;;;;5022847;28;20026;-81
2022/01/06 12:12:03;;;;;;;0.45;0.45;;;8.00;99.90;;;;;;5010466;28;20504;-80
2022/01/06 12:14:29;;;;;;;0.90;0.45;;;8.00;99.90;;;;;;5008493;28;20551;-80
2022/01/06 12:17:08;;;;;;;0.00;0.00;;;8.00;99.90;;;;;;5009074;28;20088;-80
2022/01/06 12:19:35;;;;;;;0.00;0.00;;;8.00;99.90;;;;;;5005709;28;20075;-81
2022/01/06 12:22:03;;;;;;;3.97;0.75;;;8.20;99.90;;;;;;5018367;28;20037;-81
2022/01/06 12:24:29;;;;;;;0.45;0.45;;;8.50;99.90;;;;;;5020382;28;20018;-81
2022/01/06 12:26:55;;;;;;;0.00;0.00;;;8.50;99.90;;;;;;5012832;28;20092;-81
2022/01/06 12:29:25;;;;;;;0.35;0.30;;;8.70;99.90;;;;;;5010023;28;20425;-78
2022/01/06 12:31:51;;;;;;;11.55;0.52;;;8.70;99.90;;;;;;5011066;28;20052;-85
2022/01/06 12:34:20;;;;;;;0.00;0.00;;;8.80;99.90;;;;;;5010550;28;20026;-77
2022/01/06 12:36:46;;;;;;;0.30;0.30;;;8.70;99.90;;;;;;5009953;28;20132;-77
2022/01/06 12:39:21;;;;;;;0.10;0.10;;;8.70;99.90;;;;;;5007457;28;20025;-78
2022/01/06 12:41:49;;;;;;;0.20;0.20;;;8.70;99.90;;;;;;5008598;28;20408;-76
2022/01/06 12:44:24;;;;;;;0.00;0.00;;;9.00;99.90;;;;;;5006154;28;20034;-82
2022/01/06 12:46:50;;;;;;;0.00;0.00;;;9.10;99.90;;;;;;5021327;28;20105;-77
2022/01/06 12:49:19;;;;;;;0.05;0.05;;;9.00;99.90;;;;;;5013062;28;20030;-84
2022/01/06 12:51:47;;;;;;;0.10;0.00;;;9.10;99.90;;;;;;5015581;28;20484;-79
2022/01/06 12:54:19;;;;;;;0.03;0.03;;;9.10;99.90;;;;;;5019836;28;20109;-77
2022/01/06 12:56:53;;;;;;;0.00;0.00;;;9.30;99.90;;;;;;5038743;28;20418;-79
2022/01/06 12:59:29;;;;;;;0.00;0.00;;;9.10;99.40;;;;;;5020396;28;20029;-84
2022/01/06 13:01:59;;;;;;;0.30;0.30;;;9.10;99.90;;;;;;5010802;28;20080;-83
2022/01/06 13:04:27;;;;;;;1.23;0.88;;;9.10;99.60;;;;;;5011353;28;20026;-80
2022/01/06 13:07:01;;;;;;;0.00;0.00;;;9.00;99.40;;;;;;5013686;28;20025;-77
2022/01/06 13:09:32;;;;;;;0.22;0.22;;;8.90;99.90;;;;;;5023274;28;20071;-84